Time;durP1;ratioP1;P1;durP2;ratioP2;P2;SDS_P1;SDS_P2;PMS_P1;PMS_P2;Temp;Humidity;BMP_temperature;BMP_pressure;BME280_temperature;BME280_humidity;BME280_pressure;Samples;Min_cycle;Max_cycle;Signal;HPM_P1;HPM_P2
2022/09/21 00:01:11;;;;;;;2.40;0.93;;;14.00;51.00;;;;;;2294882;55;21430;-76
2022/09/21 00:03:43;;;;;;;2.50;0.90;;;14.00;51.10;;;;;;2310793;55;21164;-74
2022/09/21 00:06:16;;;;;;;1.55;0.62;;;13.90;51.20;;;;;;2312258;55;21483;-74
2022/09/21 00:09:08;;;;;;;1.52;0.60;;;13.80;51.10;;;;;;2320227;54;20977;-74
2022/09/21 00:11:35;;;;;;;1.00;0.50;;;13.70;51.20;;;;;;2296371;54;20981;-73
2022/09/21 00:14:06;;;;;;;1.62;0.68;;;13.70;51.00;;;;;;2340849;55;20960;-74
2022/09/21 00:16:32;;;;;;;1.70;0.50;;;13.60;51.10;;;;;;2362494;54;21138;-73
2022/09/21 00:18:59;;;;;;;2.12;0.60;;;13.50;51.10;;;;;;2307322;55;20951;-76
2022/09/21 00:21:26;;;;;;;1.52;0.65;;;13.40;51.10;;;;;;2276552;55;20949;-74
2022/09/21 00:24:14;;;;;;;1.08;0.40;;;13.40;51.20;;;;;;2382684;54;21008;-75
2022/09/21 00:26:41;;;;;;;0.40;0.30;;;13.30;51.50;;;;;;2313960;55;20961;-75
2022/09/21 00:29:09;;;;;;;1.48;0.47;;;13.30;51.40;;;;;;2314447;55;20953;-73
2022/09/21 00:31:35;;;;;;;0.73;0.40;;;13.20;51.40;;;;;;2313789;55;20952;-74
2022/09/21 00:34:02;;;;;;;1.92;0.60;;;13.20;51.50;;;;;;2314301;55;20989;-72
2022/09/21 00:36:28;;;;;;;0.68;0.40;;;13.10;51.50;;;;;;2313086;55;20981;-74
2022/09/21 00:38:57;;;;;;;1.02;0.45;;;13.10;52.20;;;;;;2294284;54;21023;-74
2022/09/21 00:41:27;;;;;;;0.50;0.30;;;13.00;51.60;;;;;;2299144;54;20990;-73
2022/09/21 00:44:22;;;;;;;1.87;0.55;;;13.10;51.80;;;;;;2311191;54;20957;-75
2022/09/21 00:46:50;;;;;;;1.48;0.40;;;13.00;51.90;;;;;;2314539;55;21473;-74
2022/09/21 00:49:17;;;;;;;1.33;0.43;;;12.90;51.70;;;;;;2311889;55;21035;-73
2022/09/21 00:51:43;;;;;;;1.15;0.40;;;12.90;51.70;;;;;;2314871;55;20928;-75
2022/09/21 00:54:14;;;;;;;0.93;0.40;;;12.90;51.70;;;;;;2319320;54;21417;-74
2022/09/21 00:56:43;;;;;;;1.05;0.50;;;12.90;51.70;;;;;;2348385;54;20997;-74
2022/09/21 00:59:10;;;;;;;1.25;0.60;;;12.80;51.70;;;;;;2332608;54;21045;-74
2022/09/21 01:01:37;;;;;;;1.50;0.60;;;12.80;51.60;;;;;;2314834;55;20980;-75
2022/09/21 01:04:05;;;;;;;2.03;0.60;;;12.80;51.70;;;;;;2297659;55;20985;-74
2022/09/21 01:06:34;;;;;;;1.20;0.50;;;12.70;51.70;;;;;;2315101;55;20981;-74
2022/09/21 01:09:00;;;;;;;2.28;0.57;;;12.70;51.90;;;;;;2305079;54;21669;-75
2022/09/21 01:11:50;;;;;;;1.55;0.50;;;12.70;51.90;;;;;;2373033;54;21030;-75
2022/09/21 01:14:48;;;;;;;1.90;0.70;;;12.60;51.90;;;;;;2335745;55;20977;-74
2022/09/21 01:18:10;;;;;;;1.40;0.50;;;12.60;52.00;;;;;;2314436;55;22421;-75
2022/09/21 01:22:19;;;;;;;0.93;0.40;;;12.50;51.80;;;;;;2315377;55;21769;-74
2022/09/21 01:26:31;;;;;;;1.00;0.50;;;12.50;52.00;;;;;;2296350;55;21057;-74
2022/09/21 01:29:22;;;;;;;1.05;0.30;;;12.40;51.90;;;;;;2400329;54;20952;-73
2022/09/21 01:31:55;;;;;;;1.55;0.50;;;12.40;51.80;;;;;;2315109;55;20933;-75
2022/09/21 01:34:31;;;;;;;1.55;0.50;;;12.30;51.70;;;;;;2505218;54;21040;-73
2022/09/21 01:36:59;;;;;;;0.77;0.37;;;12.30;51.90;;;;;;2374970;54;21069;-73
2022/09/21 01:39:25;;;;;;;0.60;0.40;;;12.20;51.80;;;;;;2296398;55;21435;-76
2022/09/21 01:41:51;;;;;;;1.58;0.50;;;12.20;51.80;;;;;;2297604;55;20955;-73
2022/09/21 01:44:20;;;;;;;0.88;0.40;;;12.20;51.80;;;;;;2391341;54;20962;-75
2022/09/21 01:46:47;;;;;;;1.52;0.60;;;12.10;51.80;;;;;;2313391;55;20997;-73
2022/09/21 01:49:19;;;;;;;1.33;0.43;;;12.10;51.90;;;;;;2314600;55;20972;-75
2022/09/21 01:51:50;;;;;;;0.88;0.43;;;12.00;51.90;;;;;;2315114;55;20936;-75
2022/09/21 01:54:20;;;;;;;1.15;0.40;;;12.00;51.90;;;;;;2358669;54;20972;-75
2022/09/21 01:56:54;;;;;;;1.83;0.68;;;12.00;51.90;;;;;;2316024;55;20934;-74
2022/09/21 01:59:36;;;;;;;1.92;0.70;;;11.90;51.90;;;;;;2349938;54;21067;-75
2022/09/21 02:02:08;;;;;;;1.20;0.50;;;11.90;51.90;;;;;;2434148;54;21024;-74
2022/09/21 02:04:34;;;;;;;1.02;0.55;;;11.90;52.00;;;;;;2315028;55;21004;-73
2022/09/21 02:07:07;;;;;;;0.80;0.47;;;11.90;52.10;;;;;;2378199;54;21015;-73
2022/09/21 02:09:35;;;;;;;2.17;0.60;;;11.80;52.10;;;;;;2307390;54;20962;-75
2022/09/21 02:12:03;;;;;;;4.80;1.50;;;11.80;52.10;;;;;;2346105;55;20937;-75
2022/09/21 02:14:32;;;;;;;5.05;1.70;;;11.80;52.10;;;;;;2361051;54;22304;-74
2022/09/21 02:20:01;;;;;;;4.60;1.90;;;11.70;52.00;;;;;;2314451;55;21036;-73
2022/09/21 02:22:53;;;;;;;4.05;1.10;;;11.70;52.10;;;;;;2314558;55;20930;-75
2022/09/21 02:28:35;;;;;;;4.53;1.00;;;11.70;51.80;;;;;;2317395;54;20969;-76
2022/09/21 02:31:22;;;;;;;1.85;0.68;;;11.70;51.80;;;;;;2327423;54;20965;-75
2022/09/21 02:34:23;;;;;;;1.48;0.50;;;11.60;51.80;;;;;;2319079;54;21086;-74
2022/09/21 02:36:57;;;;;;;1.87;0.50;;;11.50;51.90;;;;;;2554379;54;20993;-73
2022/09/21 02:42:53;;;;;;;1.50;0.70;;;11.50;51.80;;;;;;2315697;55;21012;-74
2022/09/21 02:45:21;;;;;;;1.65;0.43;;;11.40;52.10;;;;;;2315085;55;21021;-74
2022/09/21 02:48:00;;;;;;;1.75;0.68;;;11.40;52.00;;;;;;2401856;54;20948;-73
2022/09/21 02:50:45;;;;;;;0.88;0.50;;;11.30;52.20;;;;;;2315195;55;20965;-74
2022/09/21 02:53:13;;;;;;;1.62;0.68;;;11.30;52.30;;;;;;2345787;54;21033;-73
2022/09/21 02:55:40;;;;;;;2.85;0.62;;;11.30;52.20;;;;;;2312705;55;22014;-75
2022/09/21 02:58:07;;;;;;;1.35;0.60;;;11.20;52.20;;;;;;2315501;55;21327;-74
2022/09/21 03:00:35;;;;;;;1.00;0.40;;;11.20;52.40;;;;;;2364400;54;20957;-74
2022/09/21 03:03:17;;;;;;;0.90;0.50;;;11.20;52.40;;;;;;2393419;54;20988;-75
2022/09/21 03:05:47;;;;;;;1.10;0.57;;;11.20;52.40;;;;;;2391736;54;21422;-74
2022/09/21 03:08:16;;;;;;;1.48;0.50;;;11.20;52.30;;;;;;2449508;54;20961;-76
2022/09/21 03:10:42;;;;;;;1.17;0.60;;;11.10;52.20;;;;;;2311009;54;21057;-75
2022/09/21 03:13:09;;;;;;;1.55;0.50;;;11.10;52.30;;;;;;2296013;54;21017;-75
2022/09/21 03:15:36;;;;;;;1.95;0.65;;;11.10;52.40;;;;;;2297190;55;20997;-75
2022/09/21 03:18:08;;;;;;;1.40;0.52;;;11.00;52.40;;;;;;2339133;54;21434;-76
2022/09/21 03:20:35;;;;;;;3.08;0.68;;;11.00;52.70;;;;;;2315179;54;21001;-75
2022/09/21 03:23:02;;;;;;;2.50;0.85;;;11.00;52.50;;;;;;2314912;54;20999;-74
2022/09/21 03:25:29;;;;;;;1.40;0.60;;;11.00;52.60;;;;;;2320640;54;21014;-73
2022/09/21 03:27:57;;;;;;;1.58;0.60;;;10.90;52.70;;;;;;2298499;54;20958;-74
2022/09/21 03:30:25;;;;;;;1.25;0.60;;;10.90;52.70;;;;;;2314200;55;20961;-75
2022/09/21 03:32:55;;;;;;;2.87;0.57;;;10.90;52.60;;;;;;2310996;55;21052;-72
2022/09/21 03:35:22;;;;;;;2.33;0.70;;;10.90;52.60;;;;;;2338806;54;21393;-73
2022/09/21 03:37:49;;;;;;;2.92;0.60;;;10.90;52.60;;;;;;2400208;54;21041;-74
2022/09/21 03:40:15;;;;;;;1.45;0.60;;;10.90;52.70;;;;;;2315333;55;21451;-76
2022/09/21 03:42:42;;;;;;;1.48;0.70;;;10.80;52.90;;;;;;2491028;54;20969;-73
2022/09/21 03:45:09;;;;;;;1.25;0.40;;;10.80;53.00;;;;;;2372036;54;20952;-72
2022/09/21 03:47:37;;;;;;;2.62;0.60;;;10.80;52.90;;;;;;2307439;54;21021;-73
2022/09/21 03:50:08;;;;;;;1.75;0.75;;;10.80;53.00;;;;;;2325365;54;20955;-74
2022/09/21 03:52:36;;;;;;;;;;;10.80;53.10;;;;;;2318723;55;20965;-73
2022/09/21 03:55:05;;;;;;;1.45;0.55;;;10.80;53.20;;;;;;2363958;54;20593;-73
2022/09/21 03:57:33;;;;;;;1.30;0.57;;;10.80;52.70;;;;;;2320562;54;20994;-73
2022/09/21 04:00:02;;;;;;;1.87;0.70;;;10.80;52.80;;;;;;2317553;54;20957;-73
2022/09/21 04:02:30;;;;;;;1.33;0.55;;;10.80;53.00;;;;;;2315605;55;21355;-74
2022/09/21 04:04:57;;;;;;;1.77;0.60;;;10.70;53.00;;;;;;2547128;54;21036;-75
2022/09/21 04:07:23;;;;;;;1.35;0.52;;;10.70;52.90;;;;;;2380011;54;20997;-74
2022/09/21 04:09:52;;;;;;;1.25;0.50;;;10.70;52.90;;;;;;2319630;54;20968;-73
2022/09/21 04:12:22;;;;;;;2.80;0.98;;;10.70;52.90;;;;;;2294609;55;21100;-74
2022/09/21 04:14:49;;;;;;;1.55;0.60;;;10.60;52.90;;;;;;2324091;54;21077;-75
2022/09/21 04:17:16;;;;;;;1.65;0.73;;;10.60;52.90;;;;;;2313824;55;20996;-72
2022/09/21 04:19:46;;;;;;;1.10;0.52;;;10.60;52.80;;;;;;2296786;54;20969;-73
2022/09/21 04:22:13;;;;;;;1.37;0.60;;;10.60;52.80;;;;;;2321291;54;21516;-75
2022/09/21 04:24:40;;;;;;;1.45;0.60;;;10.60;52.80;;;;;;2321336;54;20994;-73
2022/09/21 04:27:07;;;;;;;2.78;0.90;;;10.50;52.70;;;;;;2326377;54;20966;-73
2022/09/21 04:29:34;;;;;;;1.67;0.80;;;10.50;52.80;;;;;;2387647;54;21033;-75
2022/09/21 04:32:01;;;;;;;2.05;0.70;;;10.50;52.90;;;;;;2301989;54;21065;-76
2022/09/21 04:34:29;;;;;;;2.25;0.95;;;10.50;52.80;;;;;;2312142;55;21554;-74
2022/09/21 04:37:02;;;;;;;1.92;0.88;;;10.40;52.70;;;;;;2317543;54;20921;-75
2022/09/21 04:39:28;;;;;;;1.30;0.60;;;10.40;52.70;;;;;;2314839;54;20969;-75
2022/09/21 04:41:55;;;;;;;1.65;0.75;;;10.40;52.70;;;;;;2314465;55;21056;-73
2022/09/21 04:44:23;;;;;;;1.30;0.60;;;10.30;52.70;;;;;;2315093;55;20960;-74
2022/09/21 04:46:50;;;;;;;1.98;0.77;;;10.30;52.70;;;;;;2313803;55;21088;-73
2022/09/21 04:49:17;;;;;;;2.55;0.85;;;10.30;52.80;;;;;;2327928;54;20928;-75
2022/09/21 04:51:43;;;;;;;2.40;0.82;;;10.30;52.90;;;;;;2299378;55;20990;-73
2022/09/21 04:54:10;;;;;;;2.08;0.80;;;10.30;52.90;;;;;;2327227;54;21025;-74
2022/09/21 04:56:37;;;;;;;1.05;0.57;;;10.20;52.90;;;;;;2314785;55;20949;-73
2022/09/21 04:59:03;;;;;;;1.27;0.55;;;10.20;53.00;;;;;;2380871;54;20941;-72
2022/09/21 05:01:29;;;;;;;1.70;0.70;;;10.20;52.90;;;;;;2319052;54;21923;-74
2022/09/21 05:04:00;;;;;;;1.83;0.77;;;10.20;52.90;;;;;;2314252;55;21817;-75
2022/09/21 05:06:28;;;;;;;1.23;0.60;;;10.20;53.40;;;;;;2315906;54;20909;-74
2022/09/21 05:11:40;;;;;;;1.77;0.77;;;10.10;52.70;;;;;;2331984;54;21016;-74
2022/09/21 05:14:08;;;;;;;1.80;0.60;;;10.10;52.70;;;;;;2346528;54;20980;-75
2022/09/21 05:16:37;;;;;;;1.02;0.50;;;10.00;52.60;;;;;;2313007;55;20969;-74
2022/09/21 05:19:04;;;;;;;2.83;0.80;;;10.00;52.60;;;;;;2359986;54;20970;-73
2022/09/21 05:21:31;;;;;;;2.65;1.00;;;10.00;52.70;;;;;;2290224;54;21071;-74
2022/09/21 05:24:01;;;;;;;2.90;0.70;;;10.00;52.80;;;;;;2304504;54;20929;-73
2022/09/21 05:26:27;;;;;;;1.85;0.70;;;9.90;53.80;;;;;;2296349;55;20937;-71
2022/09/21 05:28:59;;;;;;;1.42;0.70;;;9.90;53.80;;;;;;2304072;55;20966;-73
2022/09/21 05:31:49;;;;;;;1.27;0.70;;;9.90;53.90;;;;;;2304089;55;20933;-75
2022/09/21 05:36:56;;;;;;;1.70;0.75;;;9.90;54.00;;;;;;2301396;55;21456;-74
2022/09/21 05:39:26;;;;;;;2.00;0.70;;;9.90;54.00;;;;;;2314729;55;21818;-72
2022/09/21 05:41:53;;;;;;;2.47;1.25;;;9.90;53.70;;;;;;2338086;54;21013;-72
2022/09/21 05:44:20;;;;;;;3.08;1.55;;;9.80;53.60;;;;;;2346700;54;20961;-74
2022/09/21 05:46:56;;;;;;;2.95;1.37;;;9.80;53.70;;;;;;2314895;55;21654;-74
2022/09/21 05:49:33;;;;;;;3.25;1.25;;;9.80;54.10;;;;;;2424476;54;20994;-75
2022/09/21 05:52:17;;;;;;;2.42;1.17;;;9.80;54.10;;;;;;2302570;55;21013;-74
2022/09/21 05:55:08;;;;;;;2.60;1.00;;;9.80;54.20;;;;;;2349595;54;20965;-73
2022/09/21 05:57:45;;;;;;;3.37;1.12;;;9.80;54.20;;;;;;2316287;55;20957;-76
2022/09/21 06:00:21;;;;;;;2.53;1.08;;;9.80;54.10;;;;;;2333599;54;20961;-75
2022/09/21 06:03:21;;;;;;;2.35;1.10;;;9.80;54.30;;;;;;2315521;55;21044;-75
2022/09/21 06:05:48;;;;;;;2.83;1.20;;;9.80;54.30;;;;;;2314973;55;20996;-73
2022/09/21 06:08:15;;;;;;;2.22;1.08;;;9.80;54.80;;;;;;2335323;54;20922;-74
2022/09/21 06:10:41;;;;;;;3.37;1.35;;;9.70;54.20;;;;;;2314839;55;20937;-74
2022/09/21 06:13:08;;;;;;;2.83;1.40;;;9.70;54.20;;;;;;2329982;54;20991;-75
2022/09/21 06:15:37;;;;;;;3.00;1.50;;;9.80;54.30;;;;;;2297343;55;24966;-74
2022/09/21 06:18:09;;;;;;;2.58;1.35;;;9.70;54.30;;;;;;2534298;54;20921;-75
2022/09/21 06:20:37;;;;;;;4.03;1.45;;;9.80;54.50;;;;;;2425025;54;21581;-75
2022/09/21 06:26:31;;;;;;;3.15;1.70;;;9.80;54.80;;;;;;2336677;54;21025;-74
2022/09/21 06:28:58;;;;;;;2.47;1.17;;;9.80;54.60;;;;;;2368771;54;21033;-75
2022/09/21 06:31:25;;;;;;;4.15;1.60;;;9.80;54.70;;;;;;2303668;55;21063;-73
2022/09/21 06:34:17;;;;;;;3.22;1.60;;;9.80;54.80;;;;;;2316375;55;21009;-73
2022/09/21 06:36:44;;;;;;;3.50;1.60;;;9.90;55.20;;;;;;2313686;55;20937;-75
2022/09/21 06:39:11;;;;;;;3.62;1.73;;;9.90;55.00;;;;;;2308157;55;21064;-73
2022/09/21 06:41:58;;;;;;;3.47;1.70;;;9.90;55.10;;;;;;2450287;54;20968;-73
2022/09/21 06:44:25;;;;;;;6.00;1.98;;;9.90;55.50;;;;;;2314147;55;20977;-73
2022/09/21 06:46:52;;;;;;;5.45;2.08;;;10.00;54.40;;;;;;2317647;54;20993;-73
2022/09/21 06:49:18;;;;;;;3.97;1.75;;;10.00;54.50;;;;;;2315151;55;21048;-74
2022/09/21 06:51:46;;;;;;;3.35;1.65;;;10.10;54.60;;;;;;2300941;55;21013;-73
2022/09/21 06:54:13;;;;;;;3.78;2.05;;;10.10;54.80;;;;;;2299768;55;20969;-72
2022/09/21 06:56:42;;;;;;;3.53;1.83;;;10.20;54.90;;;;;;2333192;54;20973;-74
2022/09/21 06:59:08;;;;;;;2.72;1.25;;;10.20;55.00;;;;;;2308468;55;20981;-73
2022/09/21 07:01:36;;;;;;;3.03;1.50;;;10.30;55.10;;;;;;2313174;55;20961;-73
2022/09/21 07:04:02;;;;;;;4.05;1.67;;;10.40;55.20;;;;;;2325694;54;21045;-75
2022/09/21 07:06:28;;;;;;;3.78;1.45;;;10.50;55.90;;;;;;2302180;55;21110;-75
2022/09/21 07:08:55;;;;;;;2.30;1.20;;;10.50;55.30;;;;;;2299336;54;20993;-73
2022/09/21 07:11:53;;;;;;;3.58;1.52;;;10.50;55.40;;;;;;2334263;54;21029;-73
2022/09/21 07:14:21;;;;;;;3.42;1.40;;;10.60;55.60;;;;;;2391295;54;21441;-75
2022/09/21 07:16:48;;;;;;;3.12;1.30;;;10.70;55.80;;;;;;2437626;54;21029;-75
2022/09/21 07:19:26;;;;;;;3.20;1.42;;;10.80;55.90;;;;;;2322285;54;21020;-75
2022/09/21 07:21:53;;;;;;;5.15;1.30;;;10.90;56.30;;;;;;2314473;55;20945;-75
2022/09/21 07:24:20;;;;;;;3.00;1.40;;;10.90;56.10;;;;;;2314642;55;20933;-75
2022/09/21 07:26:56;;;;;;;2.53;1.10;;;11.00;56.30;;;;;;2343163;54;20992;-74
2022/09/21 07:29:22;;;;;;;3.50;1.25;;;11.10;56.60;;;;;;2331960;55;20953;-75
2022/09/21 07:31:49;;;;;;;2.83;1.27;;;11.20;56.50;;;;;;2314332;55;20936;-75
2022/09/21 07:34:15;;;;;;;1.92;0.90;;;11.30;56.60;;;;;;2317887;55;20997;-74
2022/09/21 07:36:42;;;;;;;3.28;1.40;;;11.40;56.70;;;;;;2294396;54;20946;-74
2022/09/21 07:39:09;;;;;;;3.33;1.30;;;11.40;56.80;;;;;;2314190;55;21694;-74
2022/09/21 07:41:53;;;;;;;2.47;1.20;;;11.60;56.90;;;;;;2354742;54;20949;-76
2022/09/21 07:44:21;;;;;;;3.17;1.67;;;11.70;57.40;;;;;;2446905;54;21046;-74
2022/09/21 07:46:50;;;;;;;3.62;1.90;;;11.80;57.10;;;;;;2298813;55;21386;-75
2022/09/21 07:49:17;;;;;;;3.12;1.60;;;11.80;57.50;;;;;;2352707;54;20969;-74
2022/09/21 07:51:43;;;;;;;6.00;2.03;;;11.90;57.50;;;;;;2406972;54;21009;-76
2022/09/21 07:54:09;;;;;;;3.40;1.73;;;12.00;57.50;;;;;;2309391;55;20925;-75
2022/09/21 07:56:36;;;;;;;3.50;1.42;;;12.20;57.70;;;;;;2345136;54;20952;-74
2022/09/21 07:59:06;;;;;;;4.87;1.42;;;12.30;57.70;;;;;;2437884;55;20973;-75
2022/09/21 08:01:37;;;;;;;3.20;1.30;;;12.40;57.80;;;;;;2332378;54;21902;-76
2022/09/21 08:04:18;;;;;;;2.72;1.50;;;12.50;57.90;;;;;;2294420;55;21021;-74
2022/09/21 08:06:45;;;;;;;4.28;1.30;;;12.60;58.00;;;;;;2313189;55;20969;-76
2022/09/21 08:09:11;;;;;;;3.03;1.40;;;12.70;57.70;;;;;;2300539;55;20950;-75
2022/09/21 08:12:00;;;;;;;2.67;1.48;;;12.80;57.70;;;;;;2303388;55;20961;-75
2022/09/21 08:14:26;;;;;;;3.08;1.67;;;12.90;58.30;;;;;;2318277;54;21044;-74
2022/09/21 08:16:52;;;;;;;4.32;1.95;;;13.00;57.80;;;;;;2400060;54;21517;-76
2022/09/21 08:19:19;;;;;;;3.72;1.62;;;13.10;57.80;;;;;;2306577;55;20986;-75
2022/09/21 08:21:48;;;;;;;3.87;1.87;;;13.20;57.70;;;;;;2297996;54;20956;-75
2022/09/21 08:24:17;;;;;;;5.12;1.70;;;13.30;57.70;;;;;;2305259;55;21002;-76
2022/09/21 08:26:44;;;;;;;4.00;1.90;;;13.40;57.60;;;;;;2306845;55;21092;-75
2022/09/21 08:29:25;;;;;;;2.50;1.20;;;13.50;57.60;;;;;;2365783;54;20944;-76
2022/09/21 08:31:53;;;;;;;3.70;1.67;;;13.60;58.00;;;;;;2319549;55;21948;-76
2022/09/21 08:34:22;;;;;;;3.65;1.45;;;13.60;57.70;;;;;;2297607;54;21007;-77
2022/09/21 08:36:49;;;;;;;3.92;1.55;;;13.70;57.70;;;;;;2333765;54;21028;-74
2022/09/21 08:39:19;;;;;;;3.03;1.30;;;13.80;57.60;;;;;;2310408;55;20952;-75
2022/09/21 08:43:35;;;;;;;3.70;1.65;;;13.90;57.60;;;;;;2309610;55;21064;-76
2022/09/21 08:46:18;;;;;;;3.15;1.37;;;14.10;57.80;;;;;;2422966;55;20980;-76
2022/09/21 08:49:16;;;;;;;4.30;1.77;;;14.20;57.70;;;;;;2314304;55;21511;-78
2022/09/21 08:51:59;;;;;;;4.15;1.60;;;14.30;57.40;;;;;;2394854;54;22325;-75
2022/09/21 08:55:00;;;;;;;3.05;1.40;;;14.50;57.40;;;;;;2332684;54;21084;-75
2022/09/21 08:57:42;;;;;;;4.20;1.80;;;14.60;57.40;;;;;;2318056;54;20968;-75
2022/09/21 09:00:13;;;;;;;3.70;1.90;;;14.70;57.40;;;;;;2357878;54;20965;-76
2022/09/21 09:06:51;;;;;;;4.25;2.22;;;14.80;57.20;;;;;;2309826;55;21021;-75
2022/09/21 09:09:57;;;;;;;3.12;1.52;;;14.90;57.40;;;;;;2377683;54;21692;-76
2022/09/21 09:18:28;;;;;;;6.45;1.95;;;15.20;57.20;;;;;;2314173;55;21028;-76
2022/09/21 09:21:18;;;;;;;3.47;1.50;;;15.50;57.00;;;;;;2305623;55;21327;-77
2022/09/21 09:24:01;;;;;;;3.95;1.95;;;15.60;56.80;;;;;;2307043;55;21240;-76
2022/09/21 09:29:53;;;;;;;3.80;1.52;;;15.70;56.90;;;;;;2311566;55;21017;-75
2022/09/21 09:32:20;;;;;;;5.60;1.62;;;15.80;56.80;;;;;;2444686;54;21015;-77
2022/09/21 09:35:49;;;;;;;3.58;1.42;;;16.00;56.90;;;;;;2553969;54;21036;-76
2022/09/21 09:39:54;;;;;;;6.25;1.70;;;16.10;56.80;;;;;;2292368;55;20995;-76
2022/09/21 09:42:50;;;;;;;3.10;1.37;;;16.30;56.60;;;;;;2353332;54;22219;-76
2022/09/21 09:46:59;;;;;;;4.53;1.40;;;16.40;56.60;;;;;;2312897;55;21054;-75
2022/09/21 09:50:28;;;;;;;3.80;1.60;;;16.50;56.60;;;;;;2316325;55;20969;-76
2022/09/21 09:53:14;;;;;;;3.00;1.30;;;16.60;56.10;;;;;;2308289;55;21062;-77
2022/09/21 09:55:42;;;;;;;3.00;1.02;;;16.70;55.90;;;;;;2298555;54;20937;-76
2022/09/21 09:59:02;;;;;;;4.05;1.30;;;16.90;56.10;;;;;;2310384;55;20989;-76
2022/09/21 10:01:46;;;;;;;3.53;1.40;;;16.90;55.70;;;;;;2518958;54;21052;-77
2022/09/21 10:04:49;;;;;;;2.30;1.10;;;17.00;55.50;;;;;;2346422;54;21021;-77
2022/09/21 10:07:18;;;;;;;2.55;1.05;;;17.00;55.30;;;;;;2313944;55;20989;-75
2022/09/21 10:09:44;;;;;;;3.70;1.30;;;17.10;55.30;;;;;;2315171;55;20965;-74
2022/09/21 10:12:24;;;;;;;2.50;1.20;;;17.10;55.20;;;;;;2309282;55;21762;-75
2022/09/21 10:14:52;;;;;;;3.53;1.02;;;17.20;55.00;;;;;;2311493;55;20965;-75
2022/09/21 10:17:19;;;;;;;1.67;0.80;;;17.30;55.10;;;;;;2311218;55;21564;-76
2022/09/21 10:19:47;;;;;;;3.00;1.10;;;17.30;55.20;;;;;;2313072;55;20940;-75
2022/09/21 10:22:17;;;;;;;4.07;1.00;;;17.40;55.20;;;;;;2553859;54;21477;-76
2022/09/21 10:24:50;;;;;;;1.92;0.85;;;17.50;55.00;;;;;;2378600;54;20960;-76
2022/09/21 10:27:20;;;;;;;3.10;1.08;;;17.50;55.00;;;;;;2313787;55;21781;-75
2022/09/21 10:29:47;;;;;;;1.90;0.90;;;17.60;54.90;;;;;;2313773;55;20936;-77
2022/09/21 10:32:21;;;;;;;2.58;0.98;;;17.60;54.80;;;;;;2315143;55;20921;-76
2022/09/21 10:48:07;;;;;;;2.22;1.05;;;17.70;55.00;;;;;;2306746;55;21025;-74
2022/09/21 10:50:38;;;;;;;2.22;0.77;;;18.20;54.90;;;;;;2314519;55;21012;-76
2022/09/21 10:53:29;;;;;;;1.70;0.65;;;18.10;54.80;;;;;;2338517;54;21187;-75
2022/09/21 10:56:26;;;;;;;2.60;0.85;;;18.20;54.70;;;;;;2312438;55;21504;-77
2022/09/21 10:59:23;;;;;;;2.67;0.77;;;18.30;54.30;;;;;;2308301;55;20980;-75
2022/09/21 11:01:51;;;;;;;1.35;0.50;;;18.30;53.90;;;;;;2498303;54;20960;-75
2022/09/21 11:04:35;;;;;;;2.80;0.80;;;18.40;54.30;;;;;;2314433;55;20925;-76
2022/09/21 11:08:38;;;;;;;2.22;0.80;;;18.40;53.60;;;;;;2310592;55;20962;-76
2022/09/21 11:12:07;;;;;;;2.55;0.70;;;18.50;53.70;;;;;;2376678;54;20949;-75
2022/09/21 11:14:53;;;;;;;1.77;0.60;;;18.60;53.40;;;;;;2530949;54;20957;-76
2022/09/21 11:17:37;;;;;;;1.92;0.75;;;18.70;53.60;;;;;;2301708;54;20974;-74
2022/09/21 11:20:43;;;;;;;2.17;0.68;;;18.80;53.40;;;;;;2306170;55;21517;-78
2022/09/21 11:24:59;;;;;;;2.72;0.77;;;18.90;53.20;;;;;;2314728;55;20988;-78
2022/09/21 11:27:38;;;;;;;1.98;0.70;;;19.00;53.10;;;;;;2316379;55;20972;-75
2022/09/21 11:30:15;;;;;;;1.95;0.80;;;19.10;52.70;;;;;;2392973;54;21041;-77
2022/09/21 11:33:09;;;;;;;2.05;0.70;;;19.10;52.60;;;;;;2298942;54;20993;-79
2022/09/21 11:37:19;;;;;;;2.65;0.80;;;19.20;52.40;;;;;;2335927;54;21005;-76
2022/09/21 11:40:14;;;;;;;2.12;0.70;;;19.20;52.00;;;;;;2314631;55;21527;-76
2022/09/21 11:43:31;;;;;;;2.10;0.85;;;19.30;52.00;;;;;;2301895;55;21459;-76
2022/09/21 11:49:16;;;;;;;3.30;0.80;;;19.30;52.00;;;;;;2388577;54;20949;-76
2022/09/21 11:52:22;;;;;;;2.17;0.50;;;19.30;51.80;;;;;;2312659;55;20976;-75
2022/09/21 11:57:34;;;;;;;3.28;1.00;;;19.40;51.70;;;;;;2345129;54;20960;-76
2022/09/21 12:00:23;;;;;;;1.70;0.60;;;19.50;52.00;;;;;;2335918;54;21452;-76
2022/09/21 12:04:14;;;;;;;2.78;0.65;;;19.60;51.10;;;;;;2307872;55;20941;-76
2022/09/21 12:06:56;;;;;;;1.08;0.40;;;19.60;51.10;;;;;;2313822;55;21086;-79
2022/09/21 12:10:06;;;;;;;1.58;0.50;;;19.70;51.50;;;;;;2296394;55;20965;-77
2022/09/21 12:13:09;;;;;;;1.80;0.70;;;19.70;51.40;;;;;;2315628;55;21427;-77
2022/09/21 12:27:14;;;;;;;0.65;0.40;;;19.80;51.00;;;;;;2315455;55;21048;-78
2022/09/21 12:29:46;;;;;;;0.90;0.30;;;19.90;51.30;;;;;;2325815;54;21736;-76
2022/09/21 12:32:38;;;;;;;1.10;0.30;;;20.20;51.30;;;;;;2298588;55;20965;-78
2022/09/21 12:35:07;;;;;;;1.85;0.30;;;20.20;50.40;;;;;;2311467;55;21065;-76
2022/09/21 12:38:21;;;;;;;0.80;0.30;;;20.20;50.90;;;;;;2388323;55;21005;-77
2022/09/21 12:41:21;;;;;;;0.65;0.30;;;20.30;50.20;;;;;;2334907;54;20958;-76
2022/09/21 12:50:50;;;;;;;0.95;0.30;;;20.40;50.00;;;;;;2306749;55;20953;-75
2022/09/21 12:53:21;;;;;;;0.37;0.30;;;20.40;50.00;;;;;;2336563;54;21841;-76
2022/09/21 12:56:07;;;;;;;0.65;0.20;;;20.70;50.10;;;;;;2314060;55;21012;-76
2022/09/21 12:58:49;;;;;;;0.30;0.10;;;20.70;49.30;;;;;;2304418;55;20937;-76
2022/09/21 13:02:49;;;;;;;1.30;0.30;;;20.80;49.70;;;;;;2367821;54;20929;-76
2022/09/21 13:16:59;;;;;;;0.13;0.10;;;20.90;49.40;;;;;;2345737;54;20973;-76
2022/09/21 13:19:28;;;;;;;0.60;0.30;;;21.20;49.60;;;;;;2328881;54;21001;-76
2022/09/21 13:22:32;;;;;;;0.57;0.30;;;21.20;49.40;;;;;;2300991;54;21391;-77
2022/09/21 13:25:07;;;;;;;1.33;0.32;;;21.20;48.60;;;;;;2314578;55;21851;-77
2022/09/21 13:27:59;;;;;;;1.20;0.35;;;21.30;48.80;;;;;;2314795;55;20952;-77
2022/09/21 13:30:31;;;;;;;1.12;0.32;;;21.30;47.90;;;;;;2312058;55;20935;-77
2022/09/21 13:33:01;;;;;;;0.90;0.40;;;21.30;48.50;;;;;;2317666;54;20993;-76
2022/09/21 13:35:59;;;;;;;1.10;0.43;;;21.40;48.30;;;;;;2314830;55;21089;-76
2022/09/21 13:43:50;;;;;;;0.68;0.30;;;21.50;48.20;;;;;;2314450;55;21060;-76
2022/09/21 13:53:06;;;;;;;0.65;0.30;;;21.60;48.40;;;;;;2297998;55;20950;-76
2022/09/21 13:55:34;;;;;;;1.08;0.20;;;21.80;48.40;;;;;;2309128;55;20945;-76
2022/09/21 13:58:03;;;;;;;0.62;0.40;;;21.70;47.90;;;;;;2476775;54;21134;-76
2022/09/21 14:02:01;;;;;;;1.42;0.40;;;21.70;47.40;;;;;;2343827;54;21012;-76
2022/09/21 14:04:31;;;;;;;0.80;0.30;;;21.70;46.70;;;;;;2476941;54;21001;-76
2022/09/21 14:07:04;;;;;;;0.77;0.20;;;21.70;47.10;;;;;;2307580;55;20929;-76
2022/09/21 14:10:02;;;;;;;0.17;0.10;;;21.70;46.80;;;;;;2318686;54;21138;-75
2022/09/21 14:12:33;;;;;;;1.05;0.30;;;21.70;46.30;;;;;;2307191;55;21478;-76
2022/09/21 14:25:19;;;;;;;0.50;0.20;;;21.70;46.80;;;;;;2314257;55;21029;-75
2022/09/21 14:27:49;;;;;;;0.57;0.20;;;21.90;46.80;;;;;;2337421;54;21005;-77
2022/09/21 14:30:26;;;;;;;;;;;21.90;47.00;;;;;;2347400;54;21601;-76
2022/09/21 14:33:09;;;;;;;1.57;0.40;;;21.80;46.40;;;;;;2280106;54;2693229;-75
2022/09/21 14:35:47;;;;;;;0.70;0.22;;;21.90;46.10;;;;;;2307123;55;21012;-76
2022/09/21 14:38:19;;;;;;;0.30;0.20;;;21.90;46.00;;;;;;2534383;54;21771;-76
2022/09/21 14:40:50;;;;;;;0.43;0.22;;;21.90;46.10;;;;;;2310344;55;21509;-76
2022/09/21 14:43:36;;;;;;;1.58;0.40;;;21.90;46.50;;;;;;2294820;55;22460;-75
2022/09/21 14:48:41;;;;;;;0.82;0.32;;;21.90;46.00;;;;;;2433634;54;21900;-76
2022/09/21 14:52:31;;;;;;;0.95;0.30;;;22.00;46.10;;;;;;2295697;55;21005;-75
2022/09/21 14:55:19;;;;;;;0.50;0.20;;;22.10;46.20;;;;;;2314502;55;20981;-76
2022/09/21 14:58:10;;;;;;;0.62;0.25;;;22.20;46.30;;;;;;2472405;54;21474;-76
2022/09/21 15:00:42;;;;;;;0.45;0.20;;;22.20;46.30;;;;;;2314995;55;20933;-76
2022/09/21 15:04:46;;;;;;;0.70;0.23;;;22.20;46.10;;;;;;2407288;54;21435;-76
2022/09/21 15:10:57;;;;;;;1.17;0.30;;;22.30;45.60;;;;;;2554738;54;21045;-76
2022/09/21 15:13:51;;;;;;;0.90;0.30;;;22.30;45.70;;;;;;2316282;55;20972;-75
2022/09/21 15:17:18;;;;;;;0.50;0.20;;;22.40;45.00;;;;;;2314440;55;20949;-76
2022/09/21 15:19:45;;;;;;;1.25;0.30;;;22.30;44.80;;;;;;2346422;54;21419;-76
2022/09/21 15:22:19;;;;;;;1.23;0.43;;;22.30;45.30;;;;;;2407486;54;20952;-76
2022/09/21 15:24:50;;;;;;;1.02;0.25;;;22.30;44.80;;;;;;2391297;54;21017;-77
2022/09/21 15:27:17;;;;;;;0.70;0.20;;;22.30;44.80;;;;;;2312264;55;20973;-76
2022/09/21 15:29:49;;;;;;;0.73;0.30;;;22.30;45.00;;;;;;2412967;54;20993;-75
2022/09/21 15:32:34;;;;;;;0.47;0.20;;;22.30;45.70;;;;;;2356426;54;20997;-76
2022/09/21 15:38:30;;;;;;;0.37;0.20;;;22.20;44.10;;;;;;2360980;54;20973;-76
2022/09/21 15:44:35;;;;;;;0.52;0.17;;;22.20;43.90;;;;;;2315033;55;21001;-76